リヤド の空港の天気 - METARとTAF

キング・ハーリド国際空港(リヤド) ( OERK / RUH ) - サウジアラビア リヤド
飛行場実況気象(Metar)
観測時間10/20 07:00 AST (10/20 04:00 UTC)
風向・風速静穏 0m/s
視程10km以上
天気現象
なし
気温23℃
湿度38%
気圧1019hPa
METAROERK 200400Z 00000KT CAVOK 23/08 Q1019 NOSIG
過去の天気等 Google飛行場航空写真 Wunderground天気予報

過去48時間のMETAR

飛行場予報(TAF)
発表時間: 10/20 02:00 AST (10/19 23:00 UTC)
予報対象時間: 20日3時 AST ~ 21日9時 AST
風向・風速不定 2m/s
視程10km以上
なし
20日9時 AST ~ 20日11時 AST に徐々に
風向・風速東南東 6m/s
TAF OERK 192300Z 2000/2106 VRB03KT CAVOK
BECMG 2006/2008 12012KT